Time;durP1;ratioP1;P1;durP2;ratioP2;P2;SDS_P1;SDS_P2;PMS_P1;PMS_P2;Temp;Humidity;BMP_temperature;BMP_pressure;BME280_temperature;BME280_humidity;BME280_pressure;Samples;Min_cycle;Max_cycle;Signal;HPM_P1;HPM_P2
2023/08/17 00:00:33;;;;;;;1.20;1.00;;;23.30;62.10;;;;;;5051958;28;20163;-63
2023/08/17 00:02:58;;;;;;;1.00;1.00;;;23.30;62.10;;;;;;5052351;28;20186;-62
2023/08/17 00:05:24;;;;;;;1.30;1.20;;;23.30;62.10;;;;;;5052324;28;20171;-63
2023/08/17 00:07:49;;;;;;;1.90;1.10;;;23.30;62.10;;;;;;5051788;28;20990;-62
2023/08/17 00:10:15;;;;;;;2.00;1.30;;;23.30;62.10;;;;;;5052399;28;20175;-62
2023/08/17 00:12:40;;;;;;;1.20;1.10;;;23.30;62.10;;;;;;5052672;28;20202;-61
2023/08/17 00:15:06;;;;;;;1.33;1.10;;;23.20;62.00;;;;;;5051461;28;20167;-61
2023/08/17 00:17:32;;;;;;;1.80;1.02;;;23.30;62.10;;;;;;5052419;28;20248;-62
2023/08/17 00:19:57;;;;;;;1.55;1.00;;;23.30;62.10;;;;;;5056047;28;20191;-62
2023/08/17 00:22:23;;;;;;;1.00;1.00;;;23.30;62.10;;;;;;5055411;28;20171;-63
2023/08/17 00:24:49;;;;;;;1.83;1.20;;;23.20;62.10;;;;;;5056127;28;20186;-62
2023/08/17 00:27:14;;;;;;;1.17;1.13;;;23.20;62.10;;;;;;5056115;28;20246;-62
2023/08/17 00:29:40;;;;;;;1.00;1.00;;;23.20;62.90;;;;;;5055652;28;20658;-62
2023/08/17 00:32:05;;;;;;;1.65;1.20;;;23.20;62.90;;;;;;5055872;28;20518;-63
2023/08/17 00:34:31;;;;;;;1.20;0.95;;;23.20;62.10;;;;;;5056138;28;20175;-63
2023/08/17 00:36:56;;;;;;;1.10;0.98;;;23.20;62.10;;;;;;5055336;28;20668;-62
2023/08/17 00:39:22;;;;;;;1.60;1.00;;;23.20;62.10;;;;;;5055843;28;20669;-63
2023/08/17 00:41:47;;;;;;;1.50;1.40;;;23.20;62.10;;;;;;5056154;28;20565;-63
2023/08/17 00:44:13;;;;;;;1.10;1.00;;;23.20;62.10;;;;;;5054841;28;20584;-62
2023/08/17 00:46:38;;;;;;;1.10;0.90;;;23.20;62.10;;;;;;5055921;28;20537;-66
2023/08/17 00:49:05;;;;;;;1.20;1.10;;;23.20;62.10;;;;;;5054486;28;20561;-62
2023/08/17 00:51:31;;;;;;;0.93;0.90;;;23.20;62.10;;;;;;5054887;28;20237;-62
2023/08/17 00:53:58;;;;;;;2.35;1.08;;;23.20;62.10;;;;;;5054753;28;20171;-61
2023/08/17 00:56:24;;;;;;;1.20;1.10;;;23.20;62.10;;;;;;5055771;28;20175;-62
2023/08/17 00:58:49;;;;;;;1.45;1.00;;;23.20;62.20;;;;;;5053660;28;20219;-62
2023/08/17 01:01:15;;;;;;;1.02;0.77;;;23.20;62.10;;;;;;5054205;28;20186;-63
2023/08/17 01:03:41;;;;;;;1.48;1.10;;;23.20;62.10;;;;;;5055621;28;20210;-63
2023/08/17 01:06:07;;;;;;;1.02;0.93;;;23.20;62.20;;;;;;5054437;28;20555;-63
2023/08/17 01:08:33;;;;;;;1.83;1.30;;;23.20;62.10;;;;;;5055634;28;20622;-61
2023/08/17 01:11:16;;;;;;;1.73;0.90;;;23.20;62.20;;;;;;5053441;28;20262;-62
2023/08/17 01:13:56;;;;;;;2.05;1.17;;;23.20;62.20;;;;;;5055187;28;20171;-61
2023/08/17 01:16:44;;;;;;;0.82;0.80;;;23.20;62.20;;;;;;5053849;28;20181;-61
2023/08/17 01:19:09;;;;;;;1.98;1.35;;;23.10;62.10;;;;;;5053028;28;20218;-62
2023/08/17 01:21:42;;;;;;;2.83;1.00;;;23.20;62.20;;;;;;5037568;28;20179;-62
2023/08/17 01:24:08;;;;;;;1.67;1.00;;;23.10;62.10;;;;;;5054869;28;20661;-61
2023/08/17 01:26:34;;;;;;;1.25;1.15;;;23.20;62.20;;;;;;5054422;28;20175;-61
2023/08/17 01:28:59;;;;;;;1.42;1.10;;;23.10;62.10;;;;;;5054272;28;20182;-61
2023/08/17 01:31:40;;;;;;;1.45;1.02;;;23.10;62.10;;;;;;5055064;28;20182;-62
2023/08/17 01:34:08;;;;;;;1.02;0.90;;;23.10;62.10;;;;;;5054038;28;20175;-62
2023/08/17 01:36:40;;;;;;;1.00;0.90;;;23.10;62.20;;;;;;5055041;28;20262;-62
2023/08/17 01:39:05;;;;;;;0.80;0.80;;;23.10;63.00;;;;;;5036435;28;20215;-63
2023/08/17 01:41:31;;;;;;;1.63;1.00;;;23.10;62.10;;;;;;5037071;28;20175;-63
2023/08/17 01:43:57;;;;;;;1.35;1.17;;;23.10;62.10;;;;;;5053344;28;20566;-63
2023/08/17 01:46:22;;;;;;;1.58;1.30;;;23.10;62.20;;;;;;5052770;28;20224;-63
2023/08/17 01:48:48;;;;;;;1.70;1.20;;;23.10;62.20;;;;;;5053642;28;20191;-62
2023/08/17 01:51:21;;;;;;;1.70;1.30;;;23.10;62.10;;;;;;5054297;28;20250;-62
2023/08/17 01:53:46;;;;;;;1.10;1.00;;;23.10;62.10;;;;;;5053867;28;20313;-62
2023/08/17 01:56:12;;;;;;;1.77;1.13;;;23.10;62.20;;;;;;5054223;28;20175;-61
2023/08/17 01:58:37;;;;;;;1.15;1.05;;;23.10;62.20;;;;;;5054691;28;20249;-63
2023/08/17 02:01:03;;;;;;;1.38;1.02;;;23.10;62.20;;;;;;5053675;28;20171;-63
2023/08/17 02:03:28;;;;;;;1.55;1.20;;;23.10;62.20;;;;;;5054542;28;20179;-63
2023/08/17 02:05:56;;;;;;;1.45;1.00;;;23.10;62.20;;;;;;5054510;28;20174;-63
2023/08/17 02:08:22;;;;;;;1.45;1.23;;;23.10;62.20;;;;;;5053204;28;20175;-62
2023/08/17 02:10:47;;;;;;;1.38;1.13;;;23.10;62.20;;;;;;5054196;28;20217;-62
2023/08/17 02:13:14;;;;;;;1.83;1.10;;;23.10;62.20;;;;;;5054285;28;20171;-62
2023/08/17 02:15:40;;;;;;;1.13;0.95;;;23.10;63.10;;;;;;5053596;28;20180;-62
2023/08/17 02:18:05;;;;;;;1.23;1.00;;;23.10;62.30;;;;;;5053921;28;20211;-61
2023/08/17 02:20:31;;;;;;;1.50;0.88;;;23.10;62.30;;;;;;5054255;28;20164;-62
2023/08/17 02:22:56;;;;;;;0.93;0.88;;;23.10;62.30;;;;;;5053296;28;20178;-62
2023/08/17 02:25:22;;;;;;;1.17;1.08;;;23.10;62.30;;;;;;5053735;28;20183;-62
2023/08/17 02:27:47;;;;;;;1.23;1.00;;;23.10;62.30;;;;;;5054105;28;20175;-61
2023/08/17 02:30:13;;;;;;;2.03;1.10;;;23.10;62.30;;;;;;5052873;28;20517;-61
2023/08/17 02:32:39;;;;;;;1.00;1.00;;;23.00;62.20;;;;;;5053953;28;20174;-62
2023/08/17 02:35:05;;;;;;;0.90;0.90;;;23.10;62.30;;;;;;5053406;28;20167;-62
2023/08/17 02:37:30;;;;;;;1.25;1.10;;;23.10;62.30;;;;;;5053013;28;20211;-63
2023/08/17 02:39:56;;;;;;;2.25;1.23;;;23.00;62.20;;;;;;5053674;28;20201;-63
2023/08/17 02:42:22;;;;;;;1.42;1.33;;;23.00;62.20;;;;;;5051979;28;21018;-63
2023/08/17 02:44:48;;;;;;;1.20;1.10;;;23.10;62.30;;;;;;5053461;28;20231;-63
2023/08/17 02:47:13;;;;;;;1.80;1.10;;;23.00;62.20;;;;;;5053175;28;20641;-62
2023/08/17 02:49:39;;;;;;;2.08;1.10;;;23.00;62.20;;;;;;5052898;28;20183;-62
2023/08/17 02:52:04;;;;;;;2.00;1.17;;;23.00;62.30;;;;;;5053298;28;20171;-61
2023/08/17 02:54:31;;;;;;;1.25;1.15;;;23.00;62.40;;;;;;5053576;28;20626;-62
2023/08/17 02:56:57;;;;;;;1.92;1.00;;;23.00;62.30;;;;;;5052984;28;20178;-62
2023/08/17 02:59:25;;;;;;;1.50;1.00;;;23.00;62.30;;;;;;5053243;28;20214;-63
2023/08/17 03:01:51;;;;;;;1.90;1.13;;;23.00;62.40;;;;;;5053413;28;20179;-64
2023/08/17 03:04:16;;;;;;;1.13;1.00;;;23.00;62.40;;;;;;5052233;28;20171;-62
2023/08/17 03:06:42;;;;;;;1.50;1.30;;;23.00;62.40;;;;;;5053451;28;20179;-63
2023/08/17 03:09:07;;;;;;;1.65;1.10;;;23.00;62.40;;;;;;5053055;28;20553;-62
2023/08/17 03:11:33;;;;;;;0.73;0.73;;;23.00;62.40;;;;;;5052767;28;20577;-62
2023/08/17 03:14:01;;;;;;;1.25;0.80;;;23.00;62.40;;;;;;5052981;28;20274;-61
2023/08/17 03:16:27;;;;;;;1.20;1.10;;;23.00;62.40;;;;;;5053091;28;20175;-62
2023/08/17 03:18:53;;;;;;;1.58;1.20;;;23.00;62.40;;;;;;5052187;28;20336;-62
2023/08/17 03:21:19;;;;;;;1.35;1.02;;;23.00;62.40;;;;;;5052684;28;20175;-62
2023/08/17 03:23:45;;;;;;;1.20;1.10;;;23.00;62.40;;;;;;5053020;28;20187;-62
2023/08/17 03:26:10;;;;;;;1.20;1.10;;;23.00;62.40;;;;;;5051949;28;20182;-61
2023/08/17 03:28:36;;;;;;;1.65;1.08;;;23.00;62.40;;;;;;5053107;28;20190;-61
2023/08/17 03:31:02;;;;;;;0.90;0.90;;;23.00;62.40;;;;;;5052817;28;20179;-62
2023/08/17 03:33:28;;;;;;;2.03;1.10;;;22.90;62.30;;;;;;5052184;28;20186;-62
2023/08/17 03:35:54;;;;;;;1.33;1.00;;;23.00;62.40;;;;;;5052878;28;20168;-63
2023/08/17 03:38:19;;;;;;;1.10;1.00;;;23.00;62.50;;;;;;5052406;28;20254;-63
2023/08/17 03:40:45;;;;;;;1.65;1.00;;;23.00;62.50;;;;;;5052271;28;20175;-63
2023/08/17 03:43:11;;;;;;;0.80;0.80;;;23.00;62.50;;;;;;5052665;28;20262;-62
2023/08/17 03:45:36;;;;;;;1.15;0.98;;;22.90;62.40;;;;;;5051780;28;20305;-63
2023/08/17 03:48:02;;;;;;;2.03;0.90;;;23.00;62.50;;;;;;5052539;28;20178;-62
2023/08/17 03:50:28;;;;;;;1.73;1.13;;;22.90;62.40;;;;;;5052761;28;20170;-62
2023/08/17 03:52:53;;;;;;;1.52;0.90;;;22.90;62.40;;;;;;5053940;28;20175;-61
2023/08/17 03:55:19;;;;;;;1.58;1.00;;;23.00;62.50;;;;;;5056769;28;20210;-61
2023/08/17 03:57:44;;;;;;;1.58;1.00;;;22.90;62.40;;;;;;5056944;28;20203;-62
2023/08/17 04:00:10;;;;;;;2.00;0.90;;;22.90;62.40;;;;;;5055860;28;20251;-62
2023/08/17 04:02:36;;;;;;;1.75;1.10;;;22.90;62.50;;;;;;5056725;28;20536;-62
2023/08/17 04:05:02;;;;;;;0.90;0.90;;;22.90;62.40;;;;;;5055465;28;20179;-63
2023/08/17 04:07:27;;;;;;;1.88;0.93;;;22.90;62.50;;;;;;5055820;28;20568;-62
2023/08/17 04:09:53;;;;;;;1.45;1.13;;;22.90;62.50;;;;;;5056471;28;20179;-62
2023/08/17 04:12:19;;;;;;;1.80;1.30;;;22.90;62.50;;;;;;5056152;28;20164;-61
2023/08/17 04:14:45;;;;;;;1.05;0.85;;;22.90;62.50;;;;;;5055694;28;20186;-61
2023/08/17 04:17:11;;;;;;;1.40;1.10;;;22.90;62.50;;;;;;5056058;28;20262;-61
2023/08/17 04:19:36;;;;;;;1.00;0.90;;;22.90;62.50;;;;;;5056478;28;20183;-62
2023/08/17 04:22:02;;;;;;;1.73;1.08;;;22.90;62.50;;;;;;5055370;28;20263;-61
2023/08/17 04:24:27;;;;;;;1.08;0.98;;;22.90;62.50;;;;;;5056452;28;20179;-62
2023/08/17 04:26:53;;;;;;;1.08;0.98;;;22.90;62.50;;;;;;5056385;28;20221;-62
2023/08/17 04:29:19;;;;;;;1.20;1.10;;;22.90;62.50;;;;;;5055342;28;20224;-61
2023/08/17 04:31:45;;;;;;;0.90;0.90;;;22.90;62.50;;;;;;5056373;28;20664;-62
2023/08/17 04:34:11;;;;;;;2.95;1.23;;;22.90;62.50;;;;;;5055789;28;20206;-62
2023/08/17 04:36:36;;;;;;;1.23;1.13;;;22.90;62.50;;;;;;5055354;28;20638;-63
2023/08/17 04:39:04;;;;;;;1.02;1.00;;;22.90;62.60;;;;;;5055853;28;20736;-63
2023/08/17 04:41:29;;;;;;;2.05;1.08;;;22.90;62.50;;;;;;5055891;28;20175;-63
2023/08/17 04:43:55;;;;;;;0.90;0.90;;;22.90;62.50;;;;;;5053891;28;20217;-62
2023/08/17 04:46:21;;;;;;;0.98;0.98;;;22.90;62.50;;;;;;5055545;28;20580;-62
2023/08/17 04:48:46;;;;;;;1.08;1.00;;;22.90;62.50;;;;;;5055914;28;20171;-62
2023/08/17 04:51:12;;;;;;;1.75;0.93;;;22.90;63.40;;;;;;5054613;28;20259;-62
2023/08/17 04:53:38;;;;;;;1.20;1.10;;;22.90;62.60;;;;;;5055986;28;20190;-62
2023/08/17 04:56:04;;;;;;;1.80;1.15;;;22.90;62.60;;;;;;5054892;28;20171;-61
2023/08/17 04:58:29;;;;;;;1.00;0.80;;;22.90;62.60;;;;;;5055585;28;20700;-62
2023/08/17 05:00:55;;;;;;;0.95;0.90;;;22.90;62.60;;;;;;5055514;28;20171;-63
2023/08/17 05:03:21;;;;;;;1.00;1.00;;;22.90;62.60;;;;;;5054159;28;20183;-62
2023/08/17 05:05:46;;;;;;;1.13;1.02;;;22.80;62.50;;;;;;5055003;28;20258;-63
2023/08/17 05:08:12;;;;;;;1.40;1.17;;;22.90;62.50;;;;;;5054172;28;20171;-62
2023/08/17 05:10:37;;;;;;;1.20;1.02;;;22.90;62.50;;;;;;5054646;28;20175;-62
2023/08/17 05:13:03;;;;;;;1.80;0.90;;;22.90;62.50;;;;;;5055150;28;20175;-61
2023/08/17 05:15:28;;;;;;;1.02;0.93;;;22.90;62.50;;;;;;5055309;28;20210;-62
2023/08/17 05:17:55;;;;;;;0.85;0.82;;;22.90;62.60;;;;;;5054523;28;20199;-62
2023/08/17 05:20:21;;;;;;;1.17;1.00;;;22.90;62.50;;;;;;5054968;28;20611;-62
2023/08/17 05:22:47;;;;;;;0.93;0.82;;;22.80;62.50;;;;;;5055351;28;20681;-62
2023/08/17 05:25:12;;;;;;;0.98;0.95;;;22.80;62.50;;;;;;5054023;28;20642;-62
2023/08/17 05:27:38;;;;;;;1.33;0.80;;;22.90;62.50;;;;;;5055240;28;20205;-62
2023/08/17 05:30:04;;;;;;;1.50;0.93;;;22.90;62.60;;;;;;5054744;28;20171;-62
2023/08/17 05:32:32;;;;;;;1.13;1.02;;;22.90;62.60;;;;;;5054387;28;20191;-62
2023/08/17 05:34:58;;;;;;;1.52;1.02;;;22.90;62.60;;;;;;5054720;28;20174;-63
2023/08/17 05:37:24;;;;;;;1.05;0.95;;;22.90;62.60;;;;;;5054873;28;20179;-63
2023/08/17 05:39:49;;;;;;;1.00;0.85;;;22.90;62.60;;;;;;5054313;28;20187;-63
2023/08/17 05:42:16;;;;;;;1.23;1.08;;;22.90;62.60;;;;;;5054646;28;20212;-63
2023/08/17 05:44:41;;;;;;;1.13;1.00;;;22.90;62.60;;;;;;5054555;28;20234;-63
2023/08/17 05:47:07;;;;;;;1.10;1.00;;;22.90;62.60;;;;;;5053918;28;20171;-62
2023/08/17 05:49:32;;;;;;;3.20;1.05;;;22.90;62.60;;;;;;5054608;28;20175;-62
2023/08/17 05:51:58;;;;;;;1.20;1.10;;;22.80;62.60;;;;;;5054728;28;20175;-61
2023/08/17 05:54:23;;;;;;;1.95;1.05;;;22.80;62.50;;;;;;5053997;28;20198;-61
2023/08/17 05:56:49;;;;;;;1.13;0.90;;;22.80;62.60;;;;;;5054665;28;20171;-62
2023/08/17 05:59:14;;;;;;;1.50;0.93;;;22.80;62.60;;;;;;5053450;28;20302;-62
2023/08/17 06:01:40;;;;;;;1.45;1.05;;;22.80;62.60;;;;;;5054447;28;20175;-63
2023/08/17 06:04:06;;;;;;;1.13;0.85;;;22.80;62.50;;;;;;5054142;28;20175;-63
2023/08/17 06:06:31;;;;;;;1.10;0.80;;;22.80;62.60;;;;;;5053635;28;20171;-62
2023/08/17 06:08:57;;;;;;;1.40;1.20;;;22.80;62.60;;;;;;5054442;28;20193;-62
2023/08/17 06:11:23;;;;;;;1.65;1.20;;;22.80;62.60;;;;;;5054257;28;20213;-61
2023/08/17 06:13:49;;;;;;;1.35;0.90;;;22.80;62.60;;;;;;5053841;28;20187;-61
2023/08/17 06:16:15;;;;;;;1.00;0.80;;;22.80;62.60;;;;;;5053903;28;20178;-61
2023/08/17 06:18:41;;;;;;;1.75;1.08;;;22.80;63.40;;;;;;5054078;28;20242;-63
2023/08/17 06:21:07;;;;;;;1.50;1.30;;;22.90;62.60;;;;;;5053323;28;20634;-63
2023/08/17 06:23:32;;;;;;;1.65;1.20;;;22.80;62.60;;;;;;5054126;28;20175;-63
2023/08/17 06:25:58;;;;;;;1.48;0.98;;;22.90;62.50;;;;;;5053977;28;20175;-62
2023/08/17 06:28:25;;;;;;;1.13;1.05;;;22.80;62.50;;;;;;5053140;28;20171;-63
2023/08/17 06:30:54;;;;;;;1.40;1.00;;;22.90;62.50;;;;;;5053878;28;20183;-62
2023/08/17 06:33:20;;;;;;;2.08;1.00;;;22.90;62.50;;;;;;5053650;28;20171;-63
2023/08/17 06:35:45;;;;;;;1.67;1.08;;;22.90;62.50;;;;;;5053360;28;20182;-64
2023/08/17 06:38:11;;;;;;;1.67;1.00;;;22.90;62.50;;;;;;5053602;28;20693;-63
2023/08/17 06:40:37;;;;;;;1.08;0.93;;;22.90;62.50;;;;;;5053889;28;20256;-64
2023/08/17 06:43:03;;;;;;;1.15;1.05;;;22.90;62.50;;;;;;5052850;28;20638;-63
2023/08/17 06:45:28;;;;;;;1.23;0.90;;;22.90;62.50;;;;;;5053482;28;20740;-63
2023/08/17 06:47:57;;;;;;;1.83;1.00;;;22.90;62.40;;;;;;5053539;28;20543;-63
2023/08/17 06:50:22;;;;;;;1.63;0.95;;;22.90;62.50;;;;;;5057184;28;20312;-62
2023/08/17 06:52:48;;;;;;;1.10;1.00;;;22.90;62.40;;;;;;5066868;28;20637;-62
2023/08/17 06:55:15;;;;;;;2.97;1.08;;;22.90;62.40;;;;;;5053675;28;20550;-62
2023/08/17 06:57:41;;;;;;;1.13;1.08;;;22.90;62.40;;;;;;5032833;28;20211;-63
2023/08/17 07:00:07;;;;;;;1.38;0.98;;;22.90;62.30;;;;;;5033120;28;20186;-62
2023/08/17 07:02:34;;;;;;;1.27;0.95;;;22.90;63.30;;;;;;5032343;28;20693;-62
2023/08/17 07:04:59;;;;;;;1.80;1.00;;;22.90;62.30;;;;;;5032608;28;20717;-63
2023/08/17 07:07:25;;;;;;;1.85;0.90;;;22.90;62.30;;;;;;5032993;28;20255;-62
2023/08/17 07:09:50;;;;;;;2.75;0.90;;;22.90;62.30;;;;;;5032772;28;20685;-61
2023/08/17 07:12:16;;;;;;;1.17;0.95;;;23.00;62.40;;;;;;5032907;28;20232;-61
2023/08/17 07:14:42;;;;;;;1.73;0.90;;;23.00;62.50;;;;;;5033112;28;20245;-61
2023/08/17 07:17:07;;;;;;;1.90;0.88;;;23.00;62.50;;;;;;5032051;28;20315;-61
2023/08/17 07:19:33;;;;;;;2.97;1.05;;;22.90;62.50;;;;;;5033233;28;20252;-61
2023/08/17 07:21:58;;;;;;;1.98;1.20;;;23.00;62.50;;;;;;5032866;28;20592;-61
2023/08/17 07:24:24;;;;;;;2.05;1.17;;;23.00;62.50;;;;;;5032421;28;20172;-61
2023/08/17 07:26:50;;;;;;;2.20;1.05;;;23.00;62.60;;;;;;5032408;28;20180;-61
2023/08/17 07:29:15;;;;;;;4.03;1.60;;;23.00;62.50;;;;;;5032544;28;20204;-61
2023/08/17 07:31:41;;;;;;;2.38;0.98;;;23.00;62.50;;;;;;5032079;28;20199;-61
2023/08/17 07:34:06;;;;;;;1.65;1.20;;;22.90;63.30;;;;;;5032360;28;20225;-61
2023/08/17 07:36:32;;;;;;;1.27;1.17;;;23.00;63.30;;;;;;5032425;28;20176;-62
2023/08/17 07:38:58;;;;;;;4.03;1.08;;;23.00;62.50;;;;;;5031722;28;20219;-62
2023/08/17 07:41:24;;;;;;;1.05;0.88;;;23.00;62.50;;;;;;5032455;28;20195;-62
2023/08/17 07:43:49;;;;;;;2.42;1.00;;;23.00;62.50;;;;;;5032303;28;20231;-62
2023/08/17 07:46:15;;;;;;;1.58;0.90;;;22.90;62.50;;;;;;5031461;28;20179;-61
2023/08/17 07:48:40;;;;;;;0.85;0.85;;;22.90;62.50;;;;;;5032982;28;20187;-61
2023/08/17 07:51:06;;;;;;;0.80;0.80;;;22.90;63.40;;;;;;5032775;28;20717;-61
2023/08/17 07:53:32;;;;;;;0.98;0.88;;;22.90;62.60;;;;;;5032095;28;20171;-61
2023/08/17 07:55:57;;;;;;;1.73;1.08;;;22.90;62.60;;;;;;5032663;28;20217;-61
2023/08/17 07:58:23;;;;;;;1.67;1.15;;;22.90;62.60;;;;;;5032616;28;20542;-61
2023/08/17 08:00:49;;;;;;;1.95;1.20;;;22.90;62.60;;;;;;5031827;28;20172;-62
2023/08/17 08:03:15;;;;;;;2.13;1.30;;;22.90;62.70;;;;;;5032600;28;20176;-62
2023/08/17 08:05:40;;;;;;;1.15;0.93;;;22.90;63.50;;;;;;5032808;28;20180;-62
2023/08/17 08:08:06;;;;;;;1.50;1.00;;;22.90;62.60;;;;;;5031690;28;20175;-61
2023/08/17 08:10:31;;;;;;;2.28;1.10;;;22.90;62.60;;;;;;5032642;28;20175;-61
2023/08/17 08:12:57;;;;;;;2.05;1.20;;;22.90;62.60;;;;;;5030663;28;20294;-61
2023/08/17 08:15:22;;;;;;;1.50;1.00;;;22.90;62.70;;;;;;5032205;28;20238;-61
2023/08/17 08:17:48;;;;;;;2.05;1.02;;;22.90;63.50;;;;;;5032471;28;20203;-61
2023/08/17 08:20:13;;;;;;;1.73;0.90;;;22.90;62.70;;;;;;5031557;28;20183;-61
2023/08/17 08:22:39;;;;;;;2.63;1.42;;;22.90;62.70;;;;;;5032602;28;20164;-61
2023/08/17 08:25:05;;;;;;;1.10;1.10;;;22.90;62.70;;;;;;5032279;28;20700;-61
2023/08/17 08:27:30;;;;;;;1.42;1.15;;;22.90;62.70;;;;;;5031706;28;20637;-61
2023/08/17 08:29:56;;;;;;;1.45;0.80;;;22.90;62.70;;;;;;5032409;28;20180;-61
2023/08/17 08:32:21;;;;;;;1.42;1.10;;;22.90;62.70;;;;;;5032306;28;20544;-61
2023/08/17 08:34:47;;;;;;;2.53;1.30;;;22.90;62.70;;;;;;5031822;28;20168;-62
2023/08/17 08:37:13;;;;;;;2.45;1.17;;;22.90;62.70;;;;;;5032171;28;20176;-62
2023/08/17 08:39:49;;;;;;;2.85;1.00;;;22.90;62.70;;;;;;5033989;28;20211;-63
2023/08/17 08:42:15;;;;;;;1.77;1.05;;;22.90;62.70;;;;;;5035239;28;20203;-62
2023/08/17 08:44:40;;;;;;;1.20;0.95;;;22.90;62.70;;;;;;5036080;28;20644;-64
2023/08/17 08:47:06;;;;;;;1.23;1.10;;;22.90;62.70;;;;;;5035906;28;20532;-62
2023/08/17 08:49:31;;;;;;;4.53;1.00;;;22.90;62.70;;;;;;5034032;28;20195;-62
2023/08/17 08:51:59;;;;;;;1.27;1.00;;;22.90;62.70;;;;;;5034557;28;20187;-61
2023/08/17 08:54:24;;;;;;;1.80;1.20;;;22.90;62.70;;;;;;5034627;28;20191;-61
2023/08/17 08:56:54;;;;;;;2.13;1.00;;;22.90;62.70;;;;;;5034997;28;20184;-62
2023/08/17 08:59:19;;;;;;;2.00;1.02;;;23.00;62.70;;;;;;5034300;28;20274;-62
2023/08/17 09:01:45;;;;;;;1.80;1.13;;;23.00;62.70;;;;;;5034742;28;20180;-62
2023/08/17 09:04:10;;;;;;;1.00;0.95;;;23.00;62.70;;;;;;5034982;28;20167;-62
2023/08/17 09:06:36;;;;;;;2.60;1.20;;;23.00;62.60;;;;;;5034667;28;20217;-62
2023/08/17 09:09:02;;;;;;;2.55;1.40;;;23.00;62.60;;;;;;5034163;28;20261;-62
2023/08/17 09:11:28;;;;;;;1.25;1.15;;;23.00;62.60;;;;;;5035018;28;20179;-61
2023/08/17 09:13:54;;;;;;;1.33;1.13;;;23.00;62.60;;;;;;5035610;28;20179;-61
2023/08/17 09:16:19;;;;;;;1.00;0.90;;;23.10;62.60;;;;;;5034588;28;20254;-61
2023/08/17 09:18:45;;;;;;;2.25;1.50;;;23.10;63.30;;;;;;5035351;28;20306;-61
2023/08/17 09:21:21;;;;;;;1.77;1.10;;;23.10;62.60;;;;;;5033924;28;20172;-62
2023/08/17 09:23:51;;;;;;;1.83;1.20;;;23.10;62.50;;;;;;5034609;28;20182;-62
2023/08/17 09:26:17;;;;;;;1.30;1.13;;;23.10;62.50;;;;;;5034949;28;20578;-61
2023/08/17 09:28:43;;;;;;;1.40;1.30;;;23.10;62.60;;;;;;5033933;28;20241;-61
2023/08/17 09:31:08;;;;;;;1.67;1.00;;;23.10;62.60;;;;;;5034197;28;20164;-61
2023/08/17 09:33:35;;;;;;;1.05;0.95;;;23.10;62.60;;;;;;5035181;28;20234;-62
2023/08/17 09:36:00;;;;;;;1.20;1.10;;;23.10;62.60;;;;;;5034935;28;20207;-63
2023/08/17 09:38:27;;;;;;;1.20;1.10;;;23.10;62.60;;;;;;5034217;28;20239;-62
2023/08/17 09:40:52;;;;;;;1.58;1.00;;;23.10;62.60;;;;;;5034973;28;20184;-62
2023/08/17 09:43:18;;;;;;;2.30;1.38;;;23.10;62.60;;;;;;5034455;28;20231;-62
2023/08/17 09:45:46;;;;;;;1.05;0.95;;;23.10;62.70;;;;;;5033989;28;20320;-62
2023/08/17 09:48:11;;;;;;;1.75;1.08;;;23.10;62.80;;;;;;5034607;28;20176;-62
2023/08/17 09:50:37;;;;;;;1.63;1.00;;;23.10;62.80;;;;;;5033269;28;20186;-61
2023/08/17 09:53:03;;;;;;;1.30;1.20;;;23.10;62.60;;;;;;5033769;28;20547;-61
2023/08/17 09:55:31;;;;;;;1.75;1.35;;;23.10;62.60;;;;;;5034896;28;20172;-61
2023/08/17 09:57:56;;;;;;;1.17;1.05;;;23.10;62.60;;;;;;5034863;28;20207;-62
2023/08/17 10:00:22;;;;;;;0.93;0.90;;;23.10;62.70;;;;;;5032690;28;20172;-62
2023/08/17 10:02:49;;;;;;;1.35;1.25;;;23.10;62.60;;;;;;5033604;28;20510;-62
2023/08/17 10:05:16;;;;;;;1.30;1.20;;;23.10;62.70;;;;;;5034477;28;20184;-62
2023/08/17 10:07:44;;;;;;;1.30;1.20;;;23.10;62.80;;;;;;5034065;28;20217;-62
2023/08/17 10:10:12;;;;;;;1.17;1.08;;;23.10;62.80;;;;;;5034301;28;20168;-61
2023/08/17 10:13:06;;;;;;;1.17;1.10;;;23.10;62.90;;;;;;5033811;28;20180;-61
2023/08/17 10:15:33;;;;;;;1.30;1.08;;;23.10;63.70;;;;;;5023515;28;20190;-61
2023/08/17 10:18:06;;;;;;;1.40;1.30;;;23.10;62.90;;;;;;5034088;28;20702;-61
2023/08/17 10:20:31;;;;;;;1.40;1.20;;;23.10;62.90;;;;;;5032738;28;20175;-62
2023/08/17 10:23:07;;;;;;;2.45;1.40;;;23.10;62.90;;;;;;5033021;28;20178;-61
2023/08/17 10:25:32;;;;;;;1.40;1.30;;;23.10;63.70;;;;;;5033080;28;20634;-61
2023/08/17 10:28:00;;;;;;;2.55;1.20;;;23.10;63.70;;;;;;5032208;28;20172;-61
2023/08/17 10:30:25;;;;;;;1.92;1.40;;;23.00;62.80;;;;;;5033902;28;20643;-61
2023/08/17 10:32:51;;;;;;;1.42;1.00;;;23.10;62.90;;;;;;5034045;28;20182;-62
2023/08/17 10:35:16;;;;;;;1.48;1.38;;;23.00;62.90;;;;;;5031701;28;20172;-62
2023/08/17 10:37:42;;;;;;;1.48;1.38;;;23.10;62.90;;;;;;5032707;28;20222;-63
2023/08/17 10:40:08;;;;;;;1.63;1.52;;;23.00;62.80;;;;;;5033674;28;20729;-62
2023/08/17 10:42:36;;;;;;;2.25;1.20;;;23.10;62.90;;;;;;5032133;28;20176;-62
2023/08/17 10:45:25;;;;;;;1.50;1.40;;;23.10;62.90;;;;;;5033356;28;20220;-62
2023/08/17 10:47:50;;;;;;;1.17;1.08;;;23.10;62.90;;;;;;5032948;28;20191;-62
2023/08/17 10:50:23;;;;;;;1.90;1.30;;;23.00;62.90;;;;;;5032091;28;20176;-61
2023/08/17 10:52:49;;;;;;;1.70;1.52;;;23.10;62.90;;;;;;5033820;28;20182;-62
2023/08/17 10:55:15;;;;;;;1.77;1.10;;;23.10;63.80;;;;;;5032679;28;20176;-61
2023/08/17 10:57:41;;;;;;;1.38;1.27;;;23.00;62.90;;;;;;5033704;28;20180;-64
2023/08/17 11:00:24;;;;;;;1.92;1.48;;;23.10;62.90;;;;;;5033397;28;20183;-62
2023/08/17 11:02:56;;;;;;;1.30;1.20;;;23.10;63.00;;;;;;5032290;28;20182;-62
2023/08/17 11:05:44;;;;;;;2.55;1.55;;;23.10;62.90;;;;;;5033134;28;20175;-62
2023/08/17 11:08:31;;;;;;;1.95;1.60;;;23.10;63.00;;;;;;5033191;28;20180;-62
2023/08/17 11:11:17;;;;;;;1.42;1.33;;;23.10;63.00;;;;;;5032611;28;20180;-61
2023/08/17 11:13:47;;;;;;;2.42;1.48;;;23.10;63.00;;;;;;5031665;28;20191;-61
2023/08/17 11:16:14;;;;;;;1.90;1.48;;;23.10;62.90;;;;;;5032279;28;20229;-61
2023/08/17 11:18:41;;;;;;;1.83;1.48;;;23.10;62.90;;;;;;5033089;28;20302;-62
2023/08/17 11:21:07;;;;;;;2.33;1.52;;;23.10;62.90;;;;;;5032843;28;20179;-62
2023/08/17 11:23:34;;;;;;;1.90;1.65;;;23.10;63.00;;;;;;5032619;28;20186;-62
2023/08/17 11:26:00;;;;;;;1.50;1.40;;;23.10;62.90;;;;;;5033012;28;20183;-62
2023/08/17 11:28:25;;;;;;;2.05;1.55;;;23.10;63.00;;;;;;5031940;28;20182;-61
2023/08/17 11:31:00;;;;;;;1.70;1.58;;;23.10;63.00;;;;;;5032453;28;20589;-61
2023/08/17 11:33:26;;;;;;;1.70;1.50;;;23.10;63.10;;;;;;5033160;28;20176;-62
2023/08/17 11:35:57;;;;;;;1.95;1.60;;;23.10;63.00;;;;;;5032997;28;20175;-63
2023/08/17 11:38:23;;;;;;;1.60;1.50;;;23.10;63.10;;;;;;5032129;28;20682;-63
2023/08/17 11:40:49;;;;;;;1.67;1.55;;;23.10;63.10;;;;;;5033009;28;20187;-63
2023/08/17 11:43:15;;;;;;;1.58;1.48;;;23.10;63.10;;;;;;5032482;28;20771;-62
2023/08/17 11:45:41;;;;;;;1.42;1.33;;;23.10;63.20;;;;;;5030848;28;20306;-62
2023/08/17 11:48:07;;;;;;;1.88;1.48;;;23.10;63.20;;;;;;5032806;28;20276;-62
2023/08/17 11:50:32;;;;;;;3.03;1.77;;;23.10;63.30;;;;;;5033051;28;20283;-62
2023/08/17 11:53:01;;;;;;;1.70;1.60;;;23.00;63.30;;;;;;5032063;28;20541;-61
2023/08/17 11:55:26;;;;;;;1.73;1.52;;;23.00;63.30;;;;;;5032438;28;20638;-61
2023/08/17 11:57:52;;;;;;;1.60;1.50;;;23.00;63.30;;;;;;5032085;28;20211;-62
2023/08/17 12:00:21;;;;;;;1.40;1.30;;;23.00;63.30;;;;;;5031455;28;20180;-62
2023/08/17 12:02:48;;;;;;;2.33;1.77;;;23.00;63.30;;;;;;5032956;28;20192;-62
2023/08/17 12:05:13;;;;;;;2.88;1.80;;;23.00;63.40;;;;;;5031425;28;20751;-62
2023/08/17 12:07:39;;;;;;;2.17;1.70;;;23.00;63.40;;;;;;5031563;28;20258;-62
2023/08/17 12:10:05;;;;;;;3.22;1.75;;;23.00;63.20;;;;;;5032212;28;20661;-62
2023/08/17 12:12:31;;;;;;;3.83;1.60;;;23.10;63.20;;;;;;5031918;28;20189;-61
2023/08/17 12:14:57;;;;;;;2.45;1.63;;;23.10;63.20;;;;;;5035054;28;20344;-61
2023/08/17 12:17:23;;;;;;;3.22;1.90;;;23.10;63.30;;;;;;5036373;28;20629;-63
2023/08/17 12:19:49;;;;;;;2.17;1.80;;;23.10;63.30;;;;;;5035832;28;20298;-62
2023/08/17 12:22:15;;;;;;;2.10;1.77;;;23.10;64.10;;;;;;5053521;28;20416;-61
2023/08/17 12:24:41;;;;;;;3.83;1.70;;;23.10;63.20;;;;;;5073883;28;20189;-62
2023/08/17 12:27:07;;;;;;;2.63;1.90;;;23.10;63.30;;;;;;5054498;28;20544;-61
2023/08/17 12:29:32;;;;;;;4.35;2.00;;;23.10;63.30;;;;;;5062570;28;20192;-61
2023/08/17 12:32:01;;;;;;;2.15;1.70;;;23.10;63.30;;;;;;5074965;28;20577;-62
2023/08/17 12:34:27;;;;;;;2.80;2.00;;;23.10;63.30;;;;;;5075274;28;20178;-62
2023/08/17 12:36:52;;;;;;;1.73;1.50;;;23.10;63.30;;;;;;5076593;28;20182;-62
2023/08/17 12:39:18;;;;;;;3.72;1.90;;;23.10;63.20;;;;;;5059336;28;20526;-62
2023/08/17 12:41:44;;;;;;;3.63;1.70;;;23.10;63.30;;;;;;5055980;28;20517;-64
2023/08/17 12:44:13;;;;;;;2.05;1.90;;;23.10;63.30;;;;;;5055489;28;20724;-63